createdAt,value
2018-11-13T00:01:15.905Z,6.78
2018-11-13T00:03:48.023Z,6.84
2018-11-13T00:06:20.081Z,6.79
2018-11-13T00:08:52.112Z,6.82
2018-11-13T00:11:24.174Z,6.49
2018-11-13T00:13:56.181Z,6.69
2018-11-13T00:16:28.204Z,6.70
2018-11-13T00:19:00.235Z,6.67
2018-11-13T00:21:32.226Z,6.66
2018-11-13T00:24:04.366Z,6.64
2018-11-13T00:26:36.428Z,6.69
2018-11-13T00:29:08.529Z,6.70
2018-11-13T00:31:40.526Z,6.78
2018-11-13T00:34:12.571Z,6.78
2018-11-13T00:36:44.559Z,6.72
2018-11-13T00:39:16.595Z,6.71
2018-11-13T00:41:48.563Z,6.71
2018-11-13T00:44:20.564Z,6.68
2018-11-13T00:46:52.633Z,6.68
2018-11-13T00:49:25.094Z,6.66
2018-11-13T00:51:56.759Z,6.64
2018-11-13T00:54:28.805Z,6.68
2018-11-13T00:57:01.002Z,6.72
2018-11-13T00:59:33.164Z,6.72
2018-11-13T01:02:05.966Z,6.68
2018-11-13T01:04:37.390Z,6.71
2018-11-13T01:07:10.191Z,6.72
2018-11-13T01:09:42.237Z,6.78
2018-11-13T01:12:14.300Z,6.70
2018-11-13T01:14:46.350Z,6.68
2018-11-13T01:17:18.428Z,6.73
2018-11-13T01:19:50.424Z,6.77
2018-11-13T01:22:22.521Z,6.72
2018-11-13T01:24:54.468Z,6.74
2018-11-13T01:27:26.491Z,6.75
2018-11-13T01:29:58.540Z,6.76
2018-11-13T01:32:30.621Z,6.75
2018-11-13T01:35:02.702Z,6.65
2018-11-13T01:37:34.739Z,6.70
2018-11-13T01:40:11.915Z,6.68
2018-11-13T01:42:44.226Z,6.54
2018-11-13T01:45:17.322Z,6.52
2018-11-13T01:47:49.339Z,6.52
2018-11-13T01:50:21.329Z,6.53
2018-11-13T01:52:53.319Z,6.56
2018-11-13T01:55:25.334Z,6.47
2018-11-13T01:57:57.364Z,6.51
2018-11-13T02:00:29.351Z,6.46
2018-11-13T02:03:01.439Z,6.50
2018-11-13T02:05:33.488Z,6.53
2018-11-13T02:08:05.644Z,6.53
2018-11-13T02:10:37.765Z,6.51
2018-11-13T02:13:09.817Z,6.46
2018-11-13T02:15:41.884Z,6.46
2018-11-13T02:18:13.911Z,6.52
2018-11-13T02:20:46.042Z,6.56
2018-11-13T02:23:18.111Z,6.55
2018-11-13T02:25:50.187Z,6.53
2018-11-13T02:28:22.279Z,6.55
2018-11-13T02:30:54.351Z,6.50
2018-11-13T02:33:26.447Z,6.38
2018-11-13T02:35:58.521Z,6.37
2018-11-13T02:38:30.548Z,6.32
2018-11-13T02:41:02.642Z,6.27
2018-11-13T02:43:34.723Z,6.19
2018-11-13T02:46:06.751Z,6.17
2018-11-13T02:48:38.791Z,6.27
2018-11-13T02:51:10.795Z,6.24
2018-11-13T02:53:42.856Z,6.23
2018-11-13T02:56:15.016Z,6.24
2018-11-13T02:58:47.165Z,6.27
2018-11-13T03:01:19.318Z,6.34
2018-11-13T03:03:51.409Z,6.32
2018-11-13T03:06:23.507Z,6.30
2018-11-13T03:08:55.580Z,6.34
2018-11-13T03:11:27.683Z,6.37
2018-11-13T03:13:59.719Z,6.38
2018-11-13T03:16:31.779Z,6.27
2018-11-13T03:19:04.496Z,6.27
2018-11-13T03:21:36.623Z,6.23
2018-11-13T03:24:08.749Z,6.33
2018-11-13T03:26:40.947Z,6.37
2018-11-13T03:29:13.078Z,6.36
2018-11-13T03:31:45.106Z,6.36
2018-11-13T03:34:17.139Z,6.37
2018-11-13T03:36:49.221Z,6.38
2018-11-13T03:39:21.275Z,6.36
2018-11-13T03:41:53.460Z,6.26
2018-11-13T03:44:25.564Z,6.28
2018-11-13T03:46:57.625Z,6.26
2018-11-13T03:49:29.668Z,6.20
2018-11-13T03:52:01.707Z,6.20
2018-11-13T03:54:33.758Z,6.25
2018-11-13T03:57:05.735Z,6.26
2018-11-13T03:59:37.738Z,6.26
2018-11-13T04:02:09.719Z,6.34
2018-11-13T04:04:41.714Z,6.32
2018-11-13T04:07:13.723Z,6.31
2018-11-13T04:09:45.742Z,6.20
2018-11-13T04:12:17.814Z,6.17
2018-11-13T04:14:49.827Z,6.17
2018-11-13T04:17:21.921Z,6.20
2018-11-13T04:19:54.028Z,6.22
2018-11-13T04:22:26.100Z,6.26
2018-11-13T04:24:58.140Z,6.32
2018-11-13T04:27:30.216Z,6.34
2018-11-13T04:30:02.327Z,6.23
2018-11-13T04:32:34.374Z,6.28
2018-11-13T04:35:07.769Z,6.29
2018-11-13T04:37:40.035Z,6.26
2018-11-13T04:40:21.943Z,5.93
2018-11-13T04:42:53.959Z,6.33
2018-11-13T04:45:25.972Z,6.38
2018-11-13T04:47:58.004Z,6.33
2018-11-13T04:50:30.093Z,6.30
2018-11-13T04:53:02.109Z,6.35
2018-11-13T04:55:34.194Z,6.30
2018-11-13T04:58:06.249Z,6.29
2018-11-13T05:00:38.331Z,6.33
2018-11-13T05:03:10.384Z,6.27
2018-11-13T05:05:43.490Z,6.26
2018-11-13T05:08:15.562Z,6.28
2018-11-13T05:10:47.603Z,6.31
2018-11-13T05:13:19.628Z,6.23
2018-11-13T05:15:51.695Z,6.28
2018-11-13T05:18:23.873Z,6.26
2018-11-13T05:20:55.897Z,6.23
2018-11-13T05:23:27.944Z,6.28
2018-11-13T05:26:00.011Z,6.30
2018-11-13T05:28:32.093Z,6.28
2018-11-13T05:31:04.627Z,6.29
2018-11-13T05:33:36.730Z,6.34
2018-11-13T05:36:08.777Z,6.46
2018-11-13T05:38:40.787Z,6.40
2018-11-13T05:41:12.847Z,6.43
2018-11-13T05:43:44.940Z,6.43
2018-11-13T05:46:16.963Z,6.32
2018-11-13T05:48:49.030Z,6.09
2018-11-13T05:51:21.106Z,6.27
2018-11-13T05:53:53.371Z,6.29
2018-11-13T05:56:25.507Z,6.29
2018-11-13T05:58:57.550Z,6.33
2018-11-13T06:01:29.605Z,6.31
2018-11-13T06:04:01.628Z,6.33
2018-11-13T06:06:33.706Z,6.37
2018-11-13T06:09:06.433Z,6.41
2018-11-13T06:11:38.469Z,6.40
2018-11-13T06:14:10.552Z,6.38
2018-11-13T06:16:42.640Z,6.38
2018-11-13T06:19:14.716Z,6.32
2018-11-13T06:21:46.833Z,6.34
2018-11-13T06:24:18.813Z,6.29
2018-11-13T06:26:50.815Z,6.31
2018-11-13T06:29:22.815Z,6.36
2018-11-13T06:31:54.811Z,6.41
2018-11-13T06:34:26.806Z,6.32
2018-11-13T06:36:58.836Z,6.33
2018-11-13T06:39:30.828Z,6.34
2018-11-13T06:42:02.887Z,6.34
2018-11-13T06:44:34.943Z,6.33
2018-11-13T06:47:07.056Z,6.27
2018-11-13T06:49:39.556Z,6.27
2018-11-13T06:52:11.594Z,6.32
2018-11-13T06:54:58.039Z,6.35
2018-11-13T06:57:30.839Z,6.37
2018-11-13T07:00:03.564Z,6.40
2018-11-13T07:02:35.711Z,6.32
2018-11-13T07:05:09.811Z,6.45
2018-11-13T07:07:42.261Z,6.47
2018-11-13T07:10:16.457Z,6.47
2018-11-13T07:12:49.245Z,6.49
2018-11-13T07:15:23.307Z,6.48
2018-11-13T07:17:57.500Z,6.42
2018-11-13T07:20:30.900Z,6.47
2018-11-13T07:23:03.016Z,6.45
2018-11-13T07:25:35.111Z,6.45
2018-11-13T07:28:07.132Z,6.58
2018-11-13T07:30:39.141Z,6.74
2018-11-13T07:33:11.217Z,6.82
2018-11-13T07:35:43.296Z,6.65
2018-11-13T07:38:15.357Z,6.80
2018-11-13T07:40:47.409Z,6.77
2018-11-13T07:43:19.537Z,6.67
2018-11-13T07:45:51.593Z,6.65
2018-11-13T07:48:23.661Z,6.62
2018-11-13T07:50:55.760Z,6.60
2018-11-13T07:53:27.827Z,6.84
2018-11-13T07:55:59.893Z,6.75
2018-11-13T07:58:32.116Z,6.63
2018-11-13T08:01:04.139Z,6.56
2018-11-13T08:03:38.523Z,6.65
2018-11-13T08:06:10.587Z,6.89
2018-11-13T08:08:42.617Z,6.96
2018-11-13T08:11:14.701Z,7.06
2018-11-13T08:13:46.788Z,7.22
2018-11-13T08:16:18.784Z,7.20
2018-11-13T08:18:50.875Z,7.24
2018-11-13T08:21:22.841Z,7.29
2018-11-13T08:23:54.931Z,7.48
2018-11-13T08:26:26.952Z,7.52
2018-11-13T08:28:59.165Z,7.40
2018-11-13T08:31:31.178Z,7.32
2018-11-13T08:34:03.247Z,7.45
2018-11-13T08:36:35.293Z,7.48
2018-11-13T08:39:09.224Z,7.58
2018-11-13T08:41:41.308Z,7.61
2018-11-13T08:44:13.474Z,7.66
2018-11-13T08:46:45.491Z,7.91
2018-11-13T08:49:17.495Z,7.95
2018-11-13T08:51:49.469Z,7.96
2018-11-13T08:54:21.502Z,7.99
2018-11-13T08:56:53.530Z,8.00
2018-11-13T08:59:25.581Z,7.87
2018-11-13T09:01:57.560Z,8.09
2018-11-13T09:04:29.628Z,8.21
2018-11-13T09:07:01.736Z,8.42
2018-11-13T09:09:33.933Z,8.36
2018-11-13T09:12:06.049Z,8.44
2018-11-13T09:14:38.176Z,8.37
2018-11-13T09:17:10.476Z,8.67
2018-11-13T09:19:42.563Z,9.09
2018-11-13T09:22:14.553Z,8.90
2018-11-13T09:24:46.943Z,8.61
2018-11-13T09:27:18.983Z,8.23
2018-11-13T09:29:51.294Z,8.14
2018-11-13T09:32:23.271Z,8.11
2018-11-13T09:34:55.392Z,8.27
2018-11-13T09:37:27.608Z,8.41
2018-11-13T09:39:59.685Z,8.32
2018-11-13T09:42:31.712Z,8.26
2018-11-13T09:45:03.934Z,8.37
2018-11-13T09:47:36.136Z,8.64
2018-11-13T09:50:10.166Z,8.73
2018-11-13T09:52:43.483Z,8.66
2018-11-13T09:55:16.793Z,8.82
2018-11-13T09:57:48.900Z,8.95
2018-11-13T10:00:22.354Z,8.96
2018-11-13T10:02:57.286Z,9.27
2018-11-13T10:05:28.822Z,9.23
2018-11-13T10:08:00.780Z,9.16
2018-11-13T10:10:33.036Z,9.16
2018-11-13T10:13:05.075Z,9.52
2018-11-13T10:15:37.106Z,9.61
2018-11-13T10:18:09.449Z,9.48
2018-11-13T10:20:41.291Z,9.32
2018-11-13T10:23:13.265Z,9.14
2018-11-13T10:25:45.252Z,9.13
2018-11-13T10:28:17.229Z,9.38
2018-11-13T10:30:49.279Z,9.30
2018-11-13T10:33:21.276Z,9.30
2018-11-13T10:35:53.277Z,9.20
2018-11-13T10:38:25.285Z,8.84
2018-11-13T10:40:57.417Z,8.78
2018-11-13T10:43:29.336Z,8.80
2018-11-13T10:46:01.391Z,8.87
2018-11-13T10:48:33.472Z,8.82
2018-11-13T10:51:05.485Z,8.80
2018-11-13T10:53:37.543Z,8.66
2018-11-13T10:56:09.686Z,8.94
2018-11-13T10:58:41.700Z,9.00
2018-11-13T11:01:19.405Z,9.13
2018-11-13T11:03:56.855Z,9.04
2018-11-13T11:06:30.701Z,9.00
2018-11-13T11:09:03.823Z,8.96
2018-11-13T11:11:35.917Z,8.94
2018-11-13T11:14:07.903Z,8.93
2018-11-13T11:16:39.944Z,8.98
2018-11-13T11:19:11.989Z,9.09
2018-11-13T11:21:44.040Z,9.20
2018-11-13T11:24:16.095Z,8.98
2018-11-13T11:26:48.304Z,8.90
2018-11-13T11:29:20.349Z,8.88
2018-11-13T11:31:52.436Z,8.83
2018-11-13T11:34:24.448Z,8.87
2018-11-13T11:36:56.467Z,8.96
2018-11-13T11:39:28.475Z,8.98
2018-11-13T11:42:00.503Z,8.97
2018-11-13T11:44:32.638Z,8.86
2018-11-13T11:47:04.648Z,8.92
2018-11-13T11:49:36.679Z,8.90
2018-11-13T11:52:08.730Z,8.94
2018-11-13T11:54:40.812Z,8.88
2018-11-13T11:57:12.908Z,8.77
2018-11-13T11:59:44.887Z,8.71
2018-11-13T12:02:17.079Z,8.54
2018-11-13T12:04:49.127Z,8.58
2018-11-13T12:07:21.194Z,8.62
2018-11-13T12:09:53.211Z,8.68
2018-11-13T12:15:10.572Z,8.74
2018-11-13T12:17:43.274Z,8.66
2018-11-13T12:20:15.729Z,8.66
2018-11-13T12:22:47.851Z,8.64
2018-11-13T12:25:20.268Z,8.61
2018-11-13T12:27:52.060Z,8.39
2018-11-13T12:30:24.400Z,8.37
2018-11-13T12:32:56.469Z,8.52
2018-11-13T12:35:28.567Z,8.61
2018-11-13T12:38:00.714Z,8.66
2018-11-13T12:40:32.824Z,8.75
2018-11-13T12:43:05.197Z,8.73
2018-11-13T12:45:37.211Z,8.83
2018-11-13T12:48:09.258Z,8.79
2018-11-13T12:50:47.159Z,7.92
2018-11-13T12:53:19.336Z,9.00
2018-11-13T12:55:51.470Z,8.98
2018-11-13T12:58:23.556Z,9.11
2018-11-13T13:00:55.616Z,9.30
2018-11-13T13:03:27.675Z,9.26
2018-11-13T13:05:59.706Z,9.35
2018-11-13T13:08:31.853Z,9.47
2018-11-13T13:11:04.628Z,9.66
2018-11-13T13:13:36.724Z,9.70
2018-11-13T13:16:08.779Z,9.53
2018-11-13T13:18:40.853Z,9.53
2018-11-13T13:21:12.881Z,9.48
2018-11-13T13:23:44.988Z,9.49
2018-11-13T13:26:17.021Z,9.55
2018-11-13T13:28:49.118Z,9.46
2018-11-13T13:31:21.144Z,9.59
2018-11-13T13:33:53.217Z,9.58
2018-11-13T13:36:25.247Z,9.43
2018-11-13T13:38:57.297Z,9.44
2018-11-13T13:41:29.355Z,9.45
2018-11-13T13:44:01.417Z,9.42
2018-11-13T13:46:33.623Z,9.48
2018-11-13T13:49:05.897Z,9.44
2018-11-13T13:51:37.876Z,9.47
2018-11-13T13:54:09.987Z,9.42
2018-11-13T13:56:41.908Z,9.28
2018-11-13T13:59:13.964Z,9.21
2018-11-13T14:01:45.947Z,9.12
2018-11-13T14:04:17.960Z,9.20
2018-11-13T14:06:49.987Z,9.15
2018-11-13T14:09:22.082Z,9.16
2018-11-13T14:11:54.054Z,9.16
2018-11-13T14:14:26.211Z,9.13
2018-11-13T14:16:58.355Z,9.19
2018-11-13T14:19:30.423Z,9.21
2018-11-13T14:22:02.487Z,9.26
2018-11-13T14:24:34.575Z,9.26
2018-11-13T14:27:06.609Z,9.33
2018-11-13T14:29:38.671Z,9.27
2018-11-13T14:32:10.738Z,9.33
2018-11-13T14:34:42.747Z,9.39
2018-11-13T14:37:14.835Z,9.45
2018-11-13T14:39:46.884Z,9.44
2018-11-13T14:42:18.976Z,9.51
2018-11-13T14:44:51.004Z,9.51
2018-11-13T14:47:23.054Z,9.54
2018-11-13T14:49:55.103Z,9.51
2018-11-13T14:52:27.113Z,9.50
2018-11-13T14:54:59.181Z,9.47
2018-11-13T14:57:31.521Z,9.44
2018-11-13T15:00:05.222Z,9.39
2018-11-13T15:02:37.419Z,9.39
2018-11-13T15:05:11.580Z,9.39
2018-11-13T15:07:44.912Z,9.39
2018-11-13T15:10:51.064Z,9.41
2018-11-13T15:13:24.389Z,9.43
2018-11-13T15:15:56.390Z,9.44
2018-11-13T15:18:28.391Z,9.40
2018-11-13T15:21:00.487Z,9.26
2018-11-13T15:23:32.504Z,9.19
2018-11-13T15:26:05.084Z,9.00
2018-11-13T15:28:37.128Z,8.95
2018-11-13T15:31:09.180Z,8.81
2018-11-13T15:33:41.215Z,8.72
2018-11-13T15:36:13.219Z,8.63
2018-11-13T15:38:45.209Z,8.51
2018-11-13T15:41:17.252Z,8.52
2018-11-13T15:43:49.280Z,8.43
2018-11-13T15:46:21.331Z,8.31
2018-11-13T15:48:53.344Z,8.07
2018-11-13T15:51:25.385Z,7.85
2018-11-13T15:53:57.368Z,7.69
2018-11-13T15:56:29.398Z,7.79
2018-11-13T15:59:01.432Z,7.73
2018-11-13T16:01:33.438Z,7.89
2018-11-13T16:04:05.496Z,7.82
2018-11-13T16:06:37.790Z,7.74
2018-11-13T16:09:10.263Z,7.73
2018-11-13T16:11:42.288Z,7.70
2018-11-13T16:14:14.280Z,7.60
2018-11-13T16:16:46.403Z,7.50
2018-11-13T16:19:18.445Z,7.42
2018-11-13T16:21:50.542Z,7.60
2018-11-13T16:24:22.522Z,7.47
2018-11-13T16:26:54.530Z,7.48
2018-11-13T16:29:26.562Z,7.26
2018-11-13T16:31:58.552Z,7.24
2018-11-13T16:34:30.557Z,7.34
2018-11-13T16:37:02.670Z,7.32
2018-11-13T16:39:34.581Z,7.49
2018-11-13T16:42:06.641Z,7.52
2018-11-13T16:44:38.640Z,7.66
2018-11-13T16:47:10.737Z,7.57
2018-11-13T16:49:42.805Z,7.61
2018-11-13T16:52:15.080Z,7.65
2018-11-13T16:54:49.608Z,7.70
2018-11-13T16:57:22.409Z,7.61
2018-11-13T16:59:53.980Z,7.54
2018-11-13T17:02:26.019Z,7.49
2018-11-13T17:04:58.131Z,7.44
2018-11-13T17:07:30.124Z,7.52
2018-11-13T17:10:02.142Z,7.43
2018-11-13T17:12:34.160Z,7.40
2018-11-13T17:15:08.116Z,7.49
2018-11-13T17:17:40.223Z,7.60
2018-11-13T17:20:12.858Z,7.61
2018-11-13T17:22:45.469Z,7.49
2018-11-13T17:25:18.840Z,7.33
2018-11-13T17:27:51.931Z,7.48
2018-11-13T17:30:26.629Z,7.53
2018-11-13T17:32:59.856Z,7.50
2018-11-13T17:35:32.309Z,7.48
2018-11-13T17:38:04.801Z,7.42
2018-11-13T17:40:37.548Z,7.36
2018-11-13T17:43:09.562Z,7.45
2018-11-13T17:45:41.598Z,7.44
2018-11-13T17:48:13.675Z,7.49
2018-11-13T17:50:45.700Z,7.51
2018-11-13T17:53:17.796Z,7.40
2018-11-13T17:55:49.944Z,7.32
2018-11-13T17:58:22.035Z,7.24
2018-11-13T18:00:54.178Z,7.13
2018-11-13T18:03:26.225Z,7.15
2018-11-13T18:05:58.238Z,7.02
2018-11-13T18:08:30.256Z,6.97
2018-11-13T18:11:02.297Z,7.02
2018-11-13T18:13:34.313Z,6.86
2018-11-13T18:16:06.362Z,6.78
2018-11-13T18:18:38.411Z,6.58
2018-11-13T18:21:10.566Z,6.36
2018-11-13T18:23:42.652Z,6.33
2018-11-13T18:26:14.591Z,6.26
2018-11-13T18:28:46.784Z,6.16
2018-11-13T18:31:18.652Z,6.04
2018-11-13T18:33:50.675Z,5.94
2018-11-13T18:36:22.664Z,5.79
2018-11-13T18:38:54.933Z,5.72
2018-11-13T18:41:26.804Z,5.66
2018-11-13T18:43:58.796Z,5.74
2018-11-13T18:46:30.804Z,5.92
2018-11-13T18:49:02.822Z,6.06
2018-11-13T18:51:34.902Z,6.18
2018-11-13T18:54:06.990Z,6.17
2018-11-13T18:56:39.229Z,6.16
2018-11-13T18:59:11.262Z,6.29
2018-11-13T19:01:43.330Z,6.34
2018-11-13T19:04:15.344Z,6.28
2018-11-13T19:06:47.346Z,6.30
2018-11-13T19:09:19.414Z,5.94
2018-11-13T19:11:51.544Z,6.44
2018-11-13T19:14:23.396Z,6.24
2018-11-13T19:16:55.472Z,6.02
2018-11-13T19:19:27.544Z,5.96
2018-11-13T19:22:00.542Z,5.87
2018-11-13T19:24:32.598Z,5.89
2018-11-13T19:27:04.699Z,5.81
2018-11-13T19:29:36.841Z,5.71
2018-11-13T19:32:08.776Z,5.68
2018-11-13T19:34:40.770Z,5.65
2018-11-13T19:37:12.855Z,5.69
2018-11-13T19:39:44.915Z,6.09
2018-11-13T19:42:16.967Z,6.29
2018-11-13T19:44:49.319Z,6.21
2018-11-13T19:47:21.030Z,6.17
2018-11-13T19:49:53.092Z,6.19
2018-11-13T19:52:25.076Z,6.22
2018-11-13T19:54:57.055Z,6.24
2018-11-13T19:57:29.117Z,6.24
2018-11-13T20:02:40.280Z,6.07
2018-11-13T20:05:12.536Z,6.33
2018-11-13T20:07:44.849Z,6.10
2018-11-13T20:10:18.468Z,6.01
2018-11-13T20:12:51.633Z,6.04
2018-11-13T20:15:25.137Z,5.94
2018-11-13T20:17:57.178Z,5.78
2018-11-13T20:20:30.436Z,5.94
2018-11-13T20:23:04.096Z,5.92
2018-11-13T20:25:36.668Z,5.93
2018-11-13T20:28:09.208Z,5.88
2018-11-13T20:30:42.169Z,5.81
2018-11-13T20:33:14.284Z,5.79
2018-11-13T20:35:46.447Z,5.67
2018-11-13T20:38:18.660Z,5.58
2018-11-13T20:40:50.882Z,5.47
2018-11-13T20:43:23.028Z,5.38
2018-11-13T20:45:55.029Z,5.26
2018-11-13T20:48:27.098Z,5.20
2018-11-13T20:50:59.113Z,5.04
2018-11-13T20:53:31.180Z,5.21
2018-11-13T20:56:03.307Z,5.30
2018-11-13T20:58:35.392Z,5.56
2018-11-13T21:01:07.428Z,5.48
2018-11-13T21:03:39.553Z,5.47
2018-11-13T21:06:11.670Z,5.60
2018-11-13T21:08:43.878Z,5.54
2018-11-13T21:11:16.045Z,5.60
2018-11-13T21:13:48.081Z,5.56
2018-11-13T21:16:20.490Z,5.58
2018-11-13T21:18:52.213Z,5.67
2018-11-13T21:21:24.243Z,5.63
2018-11-13T21:23:56.364Z,5.66
2018-11-13T21:26:28.344Z,5.76
2018-11-13T21:29:00.464Z,5.69
2018-11-13T21:31:32.583Z,5.59
2018-11-13T21:34:05.062Z,5.52
2018-11-13T21:36:37.129Z,5.53
2018-11-13T21:39:10.061Z,5.56
2018-11-13T21:41:42.069Z,5.62
2018-11-13T21:44:14.080Z,5.62
2018-11-13T21:46:46.076Z,5.57
2018-11-13T21:49:18.160Z,5.60
2018-11-13T21:51:50.254Z,5.58
2018-11-13T21:54:22.330Z,5.52
2018-11-13T21:56:54.392Z,5.56
2018-11-13T21:59:26.440Z,5.51
2018-11-13T22:01:58.580Z,5.48
2018-11-13T22:04:30.631Z,5.36
2018-11-13T22:07:02.648Z,5.20
2018-11-13T22:09:34.687Z,5.46
2018-11-13T22:12:06.666Z,5.38
2018-11-13T22:14:38.717Z,5.26
2018-11-13T22:17:10.730Z,5.09
2018-11-13T22:19:42.926Z,5.07
2018-11-13T22:22:14.770Z,5.15
2018-11-13T22:24:46.895Z,5.19
2018-11-13T22:27:19.045Z,5.36
2018-11-13T22:29:51.154Z,5.36
2018-11-13T22:32:23.220Z,5.44
2018-11-13T22:34:55.244Z,5.51
2018-11-13T22:37:27.231Z,5.72
2018-11-13T22:39:59.239Z,5.54
2018-11-13T22:42:31.264Z,5.48
2018-11-13T22:45:03.347Z,5.58
2018-11-13T22:47:35.417Z,5.53
2018-11-13T22:50:09.369Z,5.66
2018-11-13T22:52:42.034Z,5.70
2018-11-13T22:55:14.572Z,5.93
2018-11-13T22:57:47.443Z,6.07
2018-11-13T23:00:20.675Z,6.09
2018-11-13T23:02:53.795Z,6.05
2018-11-13T23:14:12.649Z,6.13
2018-11-13T23:19:40.243Z,6.26
2018-11-13T23:22:12.281Z,6.25
2018-11-13T23:24:44.274Z,6.34
2018-11-13T23:27:16.303Z,6.41
2018-11-13T23:29:48.351Z,6.43
2018-11-13T23:32:20.361Z,6.51
2018-11-13T23:34:52.414Z,6.48
2018-11-13T23:37:24.549Z,6.53
2018-11-13T23:39:56.574Z,6.66
2018-11-13T23:42:28.618Z,6.70
2018-11-13T23:45:00.652Z,6.71
2018-11-13T23:47:32.746Z,6.71
2018-11-13T23:50:05.327Z,6.76
2018-11-13T23:52:38.304Z,6.82
2018-11-13T23:55:11.488Z,6.72
2018-11-13T23:57:44.088Z,6.78
